Time;durP1;ratioP1;P1;durP2;ratioP2;P2;SDS_P1;SDS_P2;PMS_P1;PMS_P2;Temp;Humidity;BMP_temperature;BMP_pressure;BME280_temperature;BME280_humidity;BME280_pressure;Samples;Min_cycle;Max_cycle;Signal;HPM_P1;HPM_P2
2021/08/03 00:04:41;;;;;;;3.90;1.90;;;;;;;;;;10360211;28;20225;-70
2021/08/03 00:09:44;;;;;;;4.87;2.30;;;;;;;;;;10366529;28;20693;-71
2021/08/03 00:14:48;;;;;;;5.47;2.13;;;;;;;;;;10365697;28;20697;-70
2021/08/03 00:19:52;;;;;;;4.67;2.30;;;;;;;;;;10365952;28;20637;-72
2021/08/03 00:24:54;;;;;;;5.30;2.20;;;;;;;;;;10362386;28;20613;-73
2021/08/03 00:29:59;;;;;;;5.07;2.37;;;;;;;;;;10369394;28;20242;-72
2021/08/03 00:35:01;;;;;;;4.40;2.23;;;;;;;;;;10367603;28;20218;-71
2021/08/03 00:40:04;;;;;;;6.10;2.67;;;;;;;;;;10364900;28;20246;-72
2021/08/03 00:45:09;;;;;;;5.17;2.20;;;;;;;;;;10358228;28;20194;-71
2021/08/03 00:50:12;;;;;;;6.17;2.83;;;;;;;;;;10367766;28;20206;-70
2021/08/03 00:55:14;;;;;;;6.20;2.90;;;;;;;;;;10363172;28;20218;-73
2021/08/03 01:00:18;;;;;;;4.67;2.37;;;;;;;;;;10364166;28;20229;-71
2021/08/03 01:05:21;;;;;;;6.83;2.70;;;;;;;;;;10365238;28;20190;-72
2021/08/03 01:10:26;;;;;;;5.93;2.70;;;;;;;;;;10365393;28;20670;-71
2021/08/03 01:15:33;;;;;;;7.73;2.70;;;;;;;;;;10367662;28;20752;-72
2021/08/03 01:20:39;;;;;;;7.53;2.60;;;;;;;;;;10365999;28;20253;-72
2021/08/03 01:25:46;;;;;;;6.63;3.00;;;;;;;;;;10354601;28;20221;-72
2021/08/03 01:30:53;;;;;;;5.93;2.87;;;;;;;;;;10364525;28;20187;-69
2021/08/03 01:35:56;;;;;;;5.03;2.70;;;;;;;;;;10360795;28;20218;-71
2021/08/03 01:41:01;;;;;;;6.17;2.70;;;;;;;;;;10366744;28;20214;-71
2021/08/03 01:46:06;;;;;;;6.47;2.63;;;;;;;;;;10360240;28;20264;-70
2021/08/03 01:51:09;;;;;;;4.83;2.40;;;;;;;;;;10363629;28;20249;-71
2021/08/03 01:56:12;;;;;;;5.97;2.90;;;;;;;;;;10366071;28;20225;-70
2021/08/03 02:01:19;;;;;;;4.87;2.60;;;;;;;;;;10365346;28;20218;-71
2021/08/03 02:06:23;;;;;;;5.70;2.70;;;;;;;;;;10356076;28;20296;-71
2021/08/03 02:11:28;;;;;;;4.63;2.30;;;;;;;;;;10362068;28;20234;-73
2021/08/03 02:16:32;;;;;;;6.00;2.70;;;;;;;;;;10361190;28;20222;-70
2021/08/03 02:21:35;;;;;;;6.70;2.70;;;;;;;;;;10364754;28;20222;-69
2021/08/03 02:26:38;;;;;;;6.90;2.73;;;;;;;;;;10360019;28;20238;-69
2021/08/03 02:31:45;;;;;;;6.70;3.30;;;;;;;;;;10362349;28;20203;-70
2021/08/03 02:36:49;;;;;;;6.57;3.07;;;;;;;;;;10365576;28;20265;-68
2021/08/03 02:41:52;;;;;;;7.83;3.40;;;;;;;;;;10362835;28;20205;-71
2021/08/03 02:46:57;;;;;;;5.97;3.20;;;;;;;;;;10358499;28;20230;-70
2021/08/03 02:52:00;;;;;;;7.13;3.30;;;;;;;;;;10363852;28;20754;-69
2021/08/03 02:57:04;;;;;;;5.47;3.10;;;;;;;;;;10360579;28;20261;-70
2021/08/03 03:02:10;;;;;;;6.90;3.00;;;;;;;;;;10363403;28;20273;-71
2021/08/03 03:07:16;;;;;;;6.67;2.90;;;;;;;;;;10353057;28;20524;-70
2021/08/03 03:12:18;;;;;;;5.83;2.90;;;;;;;;;;10359595;28;20203;-70
2021/08/03 03:17:23;;;;;;;6.70;3.20;;;;;;;;;;10363281;28;20289;-71
2021/08/03 03:22:26;;;;;;;7.07;3.10;;;;;;;;;;10362768;28;20201;-69
2021/08/03 03:27:29;;;;;;;5.90;3.00;;;;;;;;;;10362444;28;20234;-69
2021/08/03 03:32:34;;;;;;;6.27;3.17;;;;;;;;;;10359254;28;20293;-68
2021/08/03 03:37:37;;;;;;;7.63;3.47;;;;;;;;;;10362715;28;20708;-69
2021/08/03 03:42:40;;;;;;;6.13;3.13;;;;;;;;;;10362139;28;20273;-70
2021/08/03 03:47:48;;;;;;;7.00;3.20;;;;;;;;;;10359848;28;20234;-71
2021/08/03 03:52:55;;;;;;;5.87;2.87;;;;;;;;;;10363007;28;20689;-70
2021/08/03 03:57:58;;;;;;;6.47;2.90;;;;;;;;;;10353231;28;20249;-70
2021/08/03 04:03:02;;;;;;;7.10;3.10;;;;;;;;;;10360058;28;20290;-71
2021/08/03 04:08:07;;;;;;;8.80;2.90;;;;;;;;;;10359956;28;20744;-71
2021/08/03 04:13:10;;;;;;;6.93;3.47;;;;;;;;;;10362541;28;20704;-71
2021/08/03 04:18:14;;;;;;;7.37;3.27;;;;;;;;;;10366872;28;20278;-69
2021/08/03 04:23:16;;;;;;;6.23;2.77;;;;;;;;;;10366372;28;20281;-71
2021/08/03 04:28:19;;;;;;;6.33;3.13;;;;;;;;;;10367790;28;20309;-71
2021/08/03 04:33:23;;;;;;;6.37;3.13;;;;;;;;;;10365297;28;20264;-71
2021/08/03 04:38:25;;;;;;;6.60;3.27;;;;;;;;;;10369859;28;20670;-69
2021/08/03 04:43:29;;;;;;;6.37;2.90;;;;;;;;;;10367948;28;20186;-70
2021/08/03 04:48:32;;;;;;;5.47;2.87;;;;;;;;;;10364788;28;20219;-69
2021/08/03 04:53:35;;;;;;;6.20;2.77;;;;;;;;;;10368935;28;20745;-69
2021/08/03 04:58:38;;;;;;;8.27;3.67;;;;;;;;;;10364377;28;20223;-70
2021/08/03 05:03:42;;;;;;;5.63;2.80;;;;;;;;;;10366450;28;20289;-70
2021/08/03 05:08:45;;;;;;;6.83;3.00;;;;;;;;;;10365789;28;20297;-70
2021/08/03 05:13:47;;;;;;;8.10;3.17;;;;;;;;;;10366823;28;20246;-70
2021/08/03 05:18:51;;;;;;;6.17;2.80;;;;;;;;;;10366297;28;20295;-69
2021/08/03 05:23:54;;;;;;;6.27;2.80;;;;;;;;;;10358110;28;20277;-70
2021/08/03 05:28:57;;;;;;;6.63;3.10;;;;;;;;;;10362182;28;20211;-72
2021/08/03 05:34:01;;;;;;;7.67;3.30;;;;;;;;;;10365991;28;20216;-72
2021/08/03 05:39:04;;;;;;;6.53;3.13;;;;;;;;;;10359318;28;20246;-73
2021/08/03 05:44:07;;;;;;;6.37;3.13;;;;;;;;;;10366040;28;20222;-72
2021/08/03 05:49:10;;;;;;;5.80;2.90;;;;;;;;;;10360212;28;20328;-72
2021/08/03 05:54:13;;;;;;;6.43;2.70;;;;;;;;;;10367932;28;20317;-70
2021/08/03 05:59:15;;;;;;;6.80;3.00;;;;;;;;;;10363702;28;20663;-70
2021/08/03 06:04:19;;;;;;;7.00;3.00;;;;;;;;;;10361614;28;20281;-72
2021/08/03 06:09:24;;;;;;;4.97;2.60;;;;;;;;;;10352097;28;20222;-72
2021/08/03 06:14:29;;;;;;;7.60;2.93;;;;;;;;;;10361728;28;20240;-72
2021/08/03 06:19:40;;;;;;;6.77;2.77;;;;;;;;;;10360060;28;20578;-70
2021/08/03 06:24:43;;;;;;;5.37;2.93;;;;;;;;;;10356286;28;20287;-70
2021/08/03 06:29:48;;;;;;;5.77;2.60;;;;;;;;;;10360065;28;20226;-71
2021/08/03 06:34:52;;;;;;;6.70;3.00;;;;;;;;;;10361045;28;20574;-71
2021/08/03 06:39:54;;;;;;;6.33;3.10;;;;;;;;;;10355648;28;23303;-70
2021/08/03 06:44:59;;;;;;;5.90;2.60;;;;;;;;;;10360647;28;20190;-70
2021/08/03 06:50:03;;;;;;;5.53;2.50;;;;;;;;;;10363016;28;20257;-71
2021/08/03 06:55:15;;;;;;;5.97;2.50;;;;;;;;;;10351240;28;20246;-72
2021/08/03 07:00:19;;;;;;;6.50;2.60;;;;;;;;;;10345082;28;20194;-73
2021/08/03 07:05:26;;;;;;;4.90;2.13;;;;;;;;;;10361457;28;20195;-70
2021/08/03 07:10:29;;;;;;;5.37;2.30;;;;;;;;;;10356617;28;20206;-72
2021/08/03 07:15:32;;;;;;;4.73;2.30;;;;;;;;;;10355574;28;20246;-70
2021/08/03 07:20:40;;;;;;;5.43;2.27;;;;;;;;;;10361367;28;20202;-70
2021/08/03 07:25:43;;;;;;;3.90;2.00;;;;;;;;;;10358562;28;20276;-71
2021/08/03 07:30:45;;;;;;;4.57;1.90;;;;;;;;;;10360434;28;20248;-70
2021/08/03 07:35:49;;;;;;;3.83;1.83;;;;;;;;;;10361511;28;20242;-72
2021/08/03 07:40:52;;;;;;;3.95;1.70;;;;;;;;;;10362499;28;20288;-71
2021/08/03 07:45:55;;;;;;;3.85;2.08;;;;;;;;;;10360130;28;20218;-72
2021/08/03 07:50:59;;;;;;;4.88;2.35;;;;;;;;;;10368111;28;20187;-71
2021/08/03 07:56:02;;;;;;;3.78;2.10;;;;;;;;;;10368345;28;20353;-72
2021/08/03 08:01:04;;;;;;;4.20;1.92;;;;;;;;;;10364807;28;20225;-72
2021/08/03 08:06:09;;;;;;;3.88;2.05;;;;;;;;;;10367235;28;20245;-72
2021/08/03 08:11:11;;;;;;;3.67;2.20;;;;;;;;;;10367618;28;20336;-73
2021/08/03 08:16:14;;;;;;;5.32;2.10;;;;;;;;;;10366536;28;20718;-72
2021/08/03 08:21:18;;;;;;;4.00;2.17;;;;;;;;;;10367369;28;21058;-72
2021/08/03 08:26:20;;;;;;;5.97;2.25;;;;;;;;;;10362632;28;20233;-73
2021/08/03 08:31:23;;;;;;;2.78;1.80;;;;;;;;;;10368903;28;20202;-73
2021/08/03 08:36:27;;;;;;;3.83;2.00;;;;;;;;;;10367929;28;20230;-72
2021/08/03 08:41:30;;;;;;;4.80;2.25;;;;;;;;;;10369504;28;20198;-72
2021/08/03 08:46:33;;;;;;;4.32;2.20;;;;;;;;;;10356537;28;20218;-73
2021/08/03 08:51:37;;;;;;;4.97;2.28;;;;;;;;;;10357418;28;20668;-73
2021/08/03 08:56:41;;;;;;;4.20;2.10;;;;;;;;;;10351976;28;23133;-73
2021/08/03 09:01:44;;;;;;;4.35;2.28;;;;;;;;;;10365022;28;20642;-73
2021/08/03 09:07:00;;;;;;;2.40;2.08;;;;;;;;;;10349360;28;22598;-73
2021/08/03 09:12:05;;;;;;;3.28;2.10;;;;;;;;;;10350107;28;20240;-73
2021/08/03 09:17:08;;;;;;;3.85;2.30;;;;;;;;;;10347725;28;20254;-73
2021/08/03 09:22:13;;;;;;;2.88;2.20;;;;;;;;;;10365659;28;20201;-72
2021/08/03 09:27:32;;;;;;;4.40;2.20;;;;;;;;;;10354093;28;20256;-72
2021/08/03 09:32:36;;;;;;;3.72;2.20;;;;;;;;;;10365794;28;20269;-72
2021/08/03 09:37:41;;;;;;;2.83;2.22;;;;;;;;;;10367621;28;20225;-73
2021/08/03 09:42:44;;;;;;;3.70;2.15;;;;;;;;;;10364486;28;20198;-72
2021/08/03 09:47:47;;;;;;;3.55;2.20;;;;;;;;;;10356192;28;20218;-71
2021/08/03 09:52:52;;;;;;;3.50;1.95;;;;;;;;;;10358701;28;20213;-71
2021/08/03 09:58:04;;;;;;;4.35;2.13;;;;;;;;;;10366526;28;20768;-71
2021/08/03 10:03:07;;;;;;;3.95;2.25;;;;;;;;;;10365067;28;20206;-71
2021/08/03 10:08:12;;;;;;;3.35;2.20;;;;;;;;;;10359187;28;20288;-72
2021/08/03 10:13:14;;;;;;;3.67;2.15;;;;;;;;;;10358495;28;20254;-71
2021/08/03 10:18:17;;;;;;;4.38;2.10;;;;;;;;;;10361125;28;20218;-73
2021/08/03 10:23:21;;;;;;;4.00;1.80;;;;;;;;;;10361588;28;20670;-72
2021/08/03 10:28:26;;;;;;;3.00;1.88;;;;;;;;;;10352430;28;20210;-70
2021/08/03 10:33:38;;;;;;;4.57;2.38;;;;;;;;;;10362392;28;20515;-72
2021/08/03 10:39:02;;;;;;;5.28;2.20;;;;;;;;;;10361316;28;20603;-72
2021/08/03 10:44:05;;;;;;;5.25;2.20;;;;;;;;;;10360657;28;20194;-72
2021/08/03 10:49:08;;;;;;;6.63;2.38;;;;;;;;;;10357176;28;20258;-72
2021/08/03 10:54:13;;;;;;;5.72;2.38;;;;;;;;;;10359510;28;20249;-72
2021/08/03 10:59:34;;;;;;;5.18;2.38;;;;;;;;;;10358434;28;20236;-73
2021/08/03 11:04:55;;;;;;;7.45;3.85;;;;;;;;;;10346739;28;20252;-72
2021/08/03 11:09:59;;;;;;;4.45;2.40;;;;;;;;;;10351512;28;20618;-70
2021/08/03 11:15:17;;;;;;;4.25;2.30;;;;;;;;;;10348647;28;20702;-71
2021/08/03 11:20:38;;;;;;;3.10;2.20;;;;;;;;;;10340363;28;20291;-73
2021/08/03 11:25:44;;;;;;;5.95;2.92;;;;;;;;;;10364918;28;20226;-74
2021/08/03 11:30:47;;;;;;;4.78;2.45;;;;;;;;;;10357811;28;20289;-74
2021/08/03 11:35:50;;;;;;;4.05;2.30;;;;;;;;;;10368027;28;20230;-73
2021/08/03 11:40:57;;;;;;;5.03;2.30;;;;;;;;;;10350651;28;20202;-74
2021/08/03 11:46:00;;;;;;;4.20;2.40;;;;;;;;;;10357530;28;20296;-73
2021/08/03 11:51:14;;;;;;;5.53;2.40;;;;;;;;;;10368437;28;20191;-74
2021/08/03 11:56:29;;;;;;;3.40;2.30;;;;;;;;;;10361526;28;20229;-73
2021/08/03 12:01:45;;;;;;;3.92;2.40;;;;;;;;;;10359731;28;20807;-74
2021/08/03 12:06:48;;;;;;;4.03;2.45;;;;;;;;;;10360163;28;20670;-74
2021/08/03 12:12:15;;;;;;;3.88;2.50;;;;;;;;;;10366720;28;20216;-74
2021/08/03 12:17:25;;;;;;;4.53;2.30;;;;;;;;;;10389787;28;20226;-73
2021/08/03 12:22:28;;;;;;;3.83;2.30;;;;;;;;;;10366856;28;20246;-72
2021/08/03 12:27:39;;;;;;;4.55;2.10;;;;;;;;;;10360918;28;20217;-71
2021/08/03 12:32:41;;;;;;;4.15;2.58;;;;;;;;;;10359420;28;20206;-72
2021/08/03 12:37:44;;;;;;;6.00;2.08;;;;;;;;;;10364625;28;20223;-73
2021/08/03 12:42:49;;;;;;;5.03;2.20;;;;;;;;;;10359515;28;20285;-72
2021/08/03 12:47:52;;;;;;;3.60;1.95;;;;;;;;;;10365846;28;20245;-73
2021/08/03 12:52:57;;;;;;;3.65;2.10;;;;;;;;;;10361759;28;20190;-71
2021/08/03 12:58:01;;;;;;;3.47;2.30;;;;;;;;;;10355145;28;20309;-73
2021/08/03 13:03:05;;;;;;;4.20;2.20;;;;;;;;;;10352364;28;20190;-74
2021/08/03 13:08:08;;;;;;;4.13;2.30;;;;;;;;;;10358443;28;20305;-73
2021/08/03 13:13:14;;;;;;;3.05;1.90;;;;;;;;;;10359036;28;20202;-72
2021/08/03 13:18:17;;;;;;;3.13;1.83;;;;;;;;;;10351684;28;20218;-72
2021/08/03 13:23:20;;;;;;;2.92;1.60;;;;;;;;;;10359543;28;20260;-73
2021/08/03 13:28:24;;;;;;;2.67;1.83;;;;;;;;;;10357650;28;20254;-73
2021/08/03 13:33:26;;;;;;;3.38;1.83;;;;;;;;;;10352288;28;20285;-73
2021/08/03 13:38:29;;;;;;;3.55;1.70;;;;;;;;;;10357047;28;20232;-74
2021/08/03 13:43:33;;;;;;;2.80;1.88;;;;;;;;;;10353881;28;20200;-73
2021/08/03 13:48:36;;;;;;;2.60;1.70;;;;;;;;;;10361638;28;20668;-72
2021/08/03 13:53:39;;;;;;;2.83;1.77;;;;;;;;;;10375492;28;20205;-73
2021/08/03 13:58:43;;;;;;;3.28;1.90;;;;;;;;;;10355681;28;21025;-72
2021/08/03 14:03:46;;;;;;;3.15;1.73;;;;;;;;;;10354996;28;20281;-72
2021/08/03 14:08:48;;;;;;;3.38;1.83;;;;;;;;;;10349358;28;20302;-74
2021/08/03 14:13:53;;;;;;;3.67;1.92;;;;;;;;;;10359011;28;20199;-72
2021/08/03 14:18:56;;;;;;;2.28;1.70;;;;;;;;;;10357192;28;20645;-71
2021/08/03 14:23:58;;;;;;;3.13;1.73;;;;;;;;;;10360714;28;20582;-71
2021/08/03 14:29:03;;;;;;;2.85;1.80;;;;;;;;;;10359198;28;20262;-72
2021/08/03 14:34:05;;;;;;;2.42;1.90;;;;;;;;;;10363494;28;20285;-73
2021/08/03 14:39:08;;;;;;;3.05;1.80;;;;;;;;;;10359439;28;20761;-71
2021/08/03 14:44:12;;;;;;;6.82;3.22;;;;;;;;;;10361592;28;20277;-72
2021/08/03 14:49:14;;;;;;;4.13;2.10;;;;;;;;;;10352806;28;20325;-72
2021/08/03 14:54:19;;;;;;;3.60;2.05;;;;;;;;;;10358759;28;20202;-73
2021/08/03 14:59:23;;;;;;;3.42;1.90;;;;;;;;;;10354641;28;20226;-72
2021/08/03 15:04:25;;;;;;;3.20;1.92;;;;;;;;;;10355708;28;20273;-71
2021/08/03 15:09:29;;;;;;;3.83;2.05;;;;;;;;;;10353509;28;20290;-73
2021/08/03 15:14:33;;;;;;;5.22;2.00;;;;;;;;;;10358022;28;20202;-73
2021/08/03 15:19:35;;;;;;;4.55;2.00;;;;;;;;;;10354505;28;20273;-72
2021/08/03 15:24:38;;;;;;;4.13;2.00;;;;;;;;;;10359732;28;20773;-73
2021/08/03 15:29:42;;;;;;;3.20;1.90;;;;;;;;;;10361932;28;20682;-73
2021/08/03 15:34:44;;;;;;;4.32;2.20;;;;;;;;;;10362791;28;20248;-73
2021/08/03 15:39:47;;;;;;;4.20;1.80;;;;;;;;;;10355897;28;20222;-73
2021/08/03 15:44:51;;;;;;;3.17;1.45;;;;;;;;;;10357713;28;20191;-72
2021/08/03 15:49:53;;;;;;;4.32;1.75;;;;;;;;;;10351490;28;20230;-73
2021/08/03 15:54:56;;;;;;;4.13;2.38;;;;;;;;;;10359445;28;20210;-73
2021/08/03 16:00:00;;;;;;;3.97;1.80;;;;;;;;;;10358477;28;20308;-74
2021/08/03 16:05:02;;;;;;;3.25;1.90;;;;;;;;;;10352814;28;20682;-72
2021/08/03 16:10:06;;;;;;;3.78;1.60;;;;;;;;;;10361073;28;20227;-74
2021/08/03 16:15:11;;;;;;;4.07;1.90;;;;;;;;;;10358893;28;20210;-72
2021/08/03 16:20:14;;;;;;;2.80;1.67;;;;;;;;;;10360550;28;20225;-73
2021/08/03 16:25:22;;;;;;;4.87;1.60;;;;;;;;;;10365268;28;20202;-73
2021/08/03 16:30:26;;;;;;;2.90;1.70;;;;;;;;;;10363939;28;20193;-73
2021/08/03 16:35:30;;;;;;;4.17;1.97;;;;;;;;;;10364480;28;20631;-72
2021/08/03 16:40:33;;;;;;;2.67;1.50;;;;;;;;;;10365418;28;20198;-72
2021/08/03 16:45:38;;;;;;;6.43;2.87;;;;;;;;;;10361554;28;20218;-72
2021/08/03 16:50:40;;;;;;;2.77;1.70;;;;;;;;;;10365248;28;20281;-72
2021/08/03 16:55:44;;;;;;;3.63;2.00;;;;;;;;;;10364392;28;20232;-70
2021/08/03 17:00:53;;;;;;;2.73;1.53;;;;;;;;;;10364290;28;20697;-72
2021/08/03 17:05:57;;;;;;;2.70;1.50;;;;;;;;;;10361892;28;20218;-71
2021/08/03 17:11:01;;;;;;;2.47;1.37;;;;;;;;;;10365088;28;20304;-71
2021/08/03 17:16:08;;;;;;;4.43;1.80;;;;;;;;;;10363273;28;20673;-71
2021/08/03 17:21:11;;;;;;;3.27;1.60;;;;;;;;;;10362989;28;20233;-70
2021/08/03 17:26:14;;;;;;;2.90;1.60;;;;;;;;;;10365553;28;20216;-70
2021/08/03 17:31:18;;;;;;;3.67;1.70;;;;;;;;;;10364901;28;20233;-71
2021/08/03 17:36:21;;;;;;;3.27;1.53;;;;;;;;;;10357206;28;20219;-72
2021/08/03 17:41:25;;;;;;;6.30;2.10;;;;;;;;;;10362254;28;20220;-72
2021/08/03 17:46:29;;;;;;;5.13;2.30;;;;;;;;;;10360335;28;20241;-71
2021/08/03 17:51:32;;;;;;;3.80;1.90;;;;;;;;;;10359735;28;20221;-69
2021/08/03 17:56:37;;;;;;;2.77;1.73;;;;;;;;;;10363376;28;20344;-71
2021/08/03 18:01:45;;;;;;;2.73;1.60;;;;;;;;;;10361013;28;20249;-72
2021/08/03 18:06:48;;;;;;;4.43;2.00;;;;;;;;;;10360544;28;20266;-71
2021/08/03 18:11:53;;;;;;;4.57;1.83;;;;;;;;;;10364397;28;20563;-70
2021/08/03 18:16:57;;;;;;;4.90;1.80;;;;;;;;;;10360516;28;20237;-71
2021/08/03 18:22:02;;;;;;;3.27;1.80;;;;;;;;;;10355139;28;20199;-69
2021/08/03 18:27:06;;;;;;;2.17;1.23;;;;;;;;;;10360569;28;20593;-72
2021/08/03 18:32:14;;;;;;;4.97;2.67;;;;;;;;;;10357568;28;20647;-71
2021/08/03 18:37:18;;;;;;;4.60;2.00;;;;;;;;;;10360967;28;20246;-70
2021/08/03 18:42:21;;;;;;;4.53;2.37;;;;;;;;;;10359698;28;20260;-73
2021/08/03 18:47:26;;;;;;;4.40;2.17;;;;;;;;;;10360944;28;20214;-70
2021/08/03 18:52:29;;;;;;;2.30;1.13;;;;;;;;;;10359812;28;20210;-72
2021/08/03 18:57:34;;;;;;;3.43;1.70;;;;;;;;;;10361095;28;20440;-72
2021/08/03 19:02:38;;;;;;;4.43;2.30;;;;;;;;;;10364234;28;20285;-73
2021/08/03 19:07:47;;;;;;;3.67;2.00;;;;;;;;;;10360939;28;20618;-73
2021/08/03 19:12:53;;;;;;;5.13;1.97;;;;;;;;;;10365144;28;20190;-74
2021/08/03 19:17:58;;;;;;;3.87;1.67;;;;;;;;;;10361671;28;20210;-75
2021/08/03 19:23:04;;;;;;;4.23;2.13;;;;;;;;;;10365075;28;20256;-74
2021/08/03 19:28:06;;;;;;;3.33;1.50;;;;;;;;;;10363613;28;20304;-73
2021/08/03 19:33:10;;;;;;;2.20;1.23;;;;;;;;;;10366850;28;20221;-74
2021/08/03 19:38:13;;;;;;;2.93;1.80;;;;;;;;;;10363888;28;20217;-73
2021/08/03 19:43:17;;;;;;;2.57;1.57;;;;;;;;;;10366715;28;20225;-74
2021/08/03 19:48:21;;;;;;;3.30;1.57;;;;;;;;;;10371751;28;20726;-73
2021/08/03 19:53:24;;;;;;;2.53;1.20;;;;;;;;;;10379051;28;21333;-73
2021/08/03 19:58:28;;;;;;;3.90;2.03;;;;;;;;;;10370637;28;20249;-72
2021/08/03 20:03:32;;;;;;;4.50;2.00;;;;;;;;;;10368580;28;20194;-74
2021/08/03 20:08:35;;;;;;;2.87;1.77;;;;;;;;;;10364318;28;20215;-72
2021/08/03 20:13:38;;;;;;;3.17;1.80;;;;;;;;;;10368153;28;20195;-73
2021/08/03 20:18:42;;;;;;;3.13;1.90;;;;;;;;;;10367517;28;20260;-72
2021/08/03 20:23:45;;;;;;;3.67;1.70;;;;;;;;;;10366621;28;20198;-71
2021/08/03 20:28:49;;;;;;;3.60;1.80;;;;;;;;;;10367332;28;20210;-73
2021/08/03 20:33:53;;;;;;;3.40;1.73;;;;;;;;;;10367478;28;20190;-72
2021/08/03 20:39:01;;;;;;;3.90;1.90;;;;;;;;;;10365814;28;20214;-73
2021/08/03 20:44:03;;;;;;;3.37;1.67;;;;;;;;;;10364008;28;20198;-73
2021/08/03 20:49:08;;;;;;;3.67;1.77;;;;;;;;;;10364762;28;21016;-72
2021/08/03 20:54:10;;;;;;;5.00;2.00;;;;;;;;;;10369230;28;20218;-72
2021/08/03 20:59:13;;;;;;;2.37;1.50;;;;;;;;;;10366551;28;20276;-73
2021/08/03 21:04:20;;;;;;;2.33;1.40;;;;;;;;;;10365263;28;20676;-74
2021/08/03 21:09:22;;;;;;;3.10;1.50;;;;;;;;;;10367595;28;20240;-73
2021/08/03 21:14:25;;;;;;;2.93;1.33;;;;;;;;;;10362748;28;20198;-72
2021/08/03 21:19:29;;;;;;;4.57;2.13;;;;;;;;;;10360474;28;20237;-74
2021/08/03 21:24:31;;;;;;;2.50;1.60;;;;;;;;;;10365993;28;20264;-73
2021/08/03 21:29:34;;;;;;;3.70;1.70;;;;;;;;;;10363385;28;20330;-73
2021/08/03 21:34:38;;;;;;;3.13;1.73;;;;;;;;;;10351419;28;20611;-72
2021/08/03 21:39:40;;;;;;;3.57;1.67;;;;;;;;;;10354170;28;20242;-73
2021/08/03 21:44:43;;;;;;;3.37;1.53;;;;;;;;;;10363881;28;20401;-72
2021/08/03 21:49:47;;;;;;;3.43;1.70;;;;;;;;;;10362731;28;20218;-74
2021/08/03 21:54:49;;;;;;;2.90;1.70;;;;;;;;;;10363768;28;20238;-74
2021/08/03 21:59:52;;;;;;;3.20;1.90;;;;;;;;;;10365940;28;20659;-72
2021/08/03 22:04:56;;;;;;;3.57;1.60;;;;;;;;;;10356271;28;20198;-70
2021/08/03 22:09:58;;;;;;;4.20;1.60;;;;;;;;;;10364708;28;20212;-70
2021/08/03 22:15:01;;;;;;;4.23;2.00;;;;;;;;;;10364542;28;20594;-71
2021/08/03 22:20:05;;;;;;;4.07;1.90;;;;;;;;;;10360911;28;20678;-69
2021/08/03 22:25:10;;;;;;;3.93;1.90;;;;;;;;;;10364927;28;20346;-70
2021/08/03 22:30:13;;;;;;;4.87;2.20;;;;;;;;;;10359932;28;20230;-69
2021/08/03 22:35:16;;;;;;;3.73;1.93;;;;;;;;;;10365620;28;20199;-70
2021/08/03 22:40:19;;;;;;;4.10;2.07;;;;;;;;;;10353217;28;20238;-70
2021/08/03 22:45:21;;;;;;;3.77;1.77;;;;;;;;;;10353919;28;20274;-70
2021/08/03 22:50:25;;;;;;;4.57;1.80;;;;;;;;;;10363713;28;20280;-69
2021/08/03 22:55:28;;;;;;;3.87;1.73;;;;;;;;;;10359702;28;20203;-70
2021/08/03 23:00:30;;;;;;;3.67;1.90;;;;;;;;;;10362374;28;20301;-69
2021/08/03 23:05:34;;;;;;;4.33;1.70;;;;;;;;;;10361347;28;20272;-71
2021/08/03 23:10:37;;;;;;;5.77;2.00;;;;;;;;;;10360997;28;20222;-70
2021/08/03 23:15:39;;;;;;;3.57;1.70;;;;;;;;;;10364337;28;20240;-69
2021/08/03 23:20:43;;;;;;;5.10;2.00;;;;;;;;;;10369684;28;20198;-70
2021/08/03 23:25:46;;;;;;;4.13;2.00;;;;;;;;;;10370215;28;20236;-71
2021/08/03 23:30:48;;;;;;;5.13;1.90;;;;;;;;;;10366610;28;20302;-69
2021/08/03 23:35:52;;;;;;;4.23;1.93;;;;;;;;;;10370254;28;20218;-70
2021/08/03 23:40:55;;;;;;;3.90;1.90;;;;;;;;;;10369069;28;20238;-69
2021/08/03 23:45:58;;;;;;;4.83;1.93;;;;;;;;;;10371297;28;20281;-70
2021/08/03 23:51:03;;;;;;;4.33;1.83;;;;;;;;;;10368105;28;20232;-69
2021/08/03 23:56:05;;;;;;;5.27;2.10;;;;;;;;;;10367495;28;20249;-71
